Startpagina
METAR-TAF:

METAR-TAF

Vliegvelden :

Flughafen Köln-Bonn

Keulen, Duitsland

breedte: 50-52N, lengte: 007-10E, hoogte: 91 m

Actueel weer

Dit bericht is 13 minuten geleden gemaakt, om 07:50 UTC
Wind 6 kt uit het oostzuidoosten, variërend tussen het oosten en het zuidzuidoosten
Temperatuur 9°C
Vochtigheid 81%
Druk 1024 hPa
Zicht 10 km of meer
geen wolken onder 1500 m en geen cumulonimbus

METAR: EDDK 180750Z 12006KT 090V150 CAVOK 09/06 Q1024 NOSIG

Tijdstip: 10:03 (08:03 UTC)

Verwachting

Dit bericht is 3 uur en het 3 minuten geleden gemaakt, om 05:00 UTC
Verwachting geldig van 18 om 06 UTC tot 19 om 12 UTC
Wind 3 kt uit variabele richting
Zicht 10 km of meer
geen wolken onder 1500 m en geen cumulonimbus
Wijzigt naar
van 18 om 07 UTC tot 18 om 10 UTC
Wind 8 kt uit het zuidoosten
Kans 30% :
Tijdelijke
van 19 om 04 UTC tot 19 om 11 UTC
Gebroken wolken op 1300 ft
regen

TAF: EDDK 180500Z 1806/1912 VRB03KT CAVOK BECMG 1807/1810 13008KT PROB30 TEMPO 1904/1911 RA BKN013

Waarnemingen en weersverwachtingen van meer dan 4000 vliegvelden (METAR en TAF).

De beschikbare stations zijn de gele en rode punten op de kaart.

Ga met uw muis naar het station om de naam te zien.

Klik dan om waarnemingen en weersverwachtingen te zien.

kaart wijzigen: klik op de groene knoppen met een zwart kruis om in te zoomen, op de groene knop met een streepje om uit te zoomen of op de groene pijlen voor aangrenzende kaarten.


METAR-TAF: